createdAt,value
2023-05-18T00:06:17.727Z,11.60
2023-05-18T00:16:43.761Z,12.80
2023-05-18T00:27:10.076Z,14.50
2023-05-18T00:37:35.958Z,12.00
2023-05-18T00:48:01.987Z,15.20
2023-05-18T00:58:28.112Z,16.10
2023-05-18T01:08:54.482Z,13.50
2023-05-18T01:19:44.978Z,10.60
2023-05-18T01:30:12.998Z,12.30
2023-05-18T01:40:45.570Z,12.90
2023-05-18T01:51:15.117Z,12.00
2023-05-18T02:01:40.997Z,14.70
2023-05-18T02:12:08.261Z,9.60
2023-05-18T02:22:34.200Z,11.30
2023-05-18T02:33:00.142Z,12.30
2023-05-18T02:43:26.172Z,9.70
2023-05-18T02:53:53.157Z,14.80
2023-05-18T03:04:20.090Z,9.30
2023-05-18T03:14:46.103Z,11.20
2023-05-18T03:25:12.265Z,10.10
2023-05-18T03:35:37.919Z,8.80
2023-05-18T03:46:03.365Z,9.10
2023-05-18T03:56:31.536Z,11.60
2023-05-18T04:06:57.266Z,7.60
2023-05-18T04:17:23.737Z,8.00
2023-05-18T04:27:51.661Z,13.00
2023-05-18T04:38:17.728Z,7.40
2023-05-18T04:48:43.635Z,13.80
2023-05-18T04:59:09.559Z,8.80
2023-05-18T05:09:35.374Z,12.10
2023-05-18T05:20:01.453Z,12.40
2023-05-18T05:30:27.402Z,14.30
2023-05-18T05:40:53.433Z,16.40
2023-05-18T05:51:19.471Z,13.10
2023-05-18T06:01:45.625Z,12.80
2023-05-18T06:12:12.494Z,13.30
2023-05-18T06:22:38.344Z,10.30
2023-05-18T06:33:04.763Z,8.40
2023-05-18T06:43:30.656Z,8.00
2023-05-18T06:53:56.519Z,12.30
2023-05-18T07:04:22.508Z,10.20
2023-05-18T07:14:48.198Z,7.90
2023-05-18T07:25:14.172Z,11.00
2023-05-18T07:35:40.447Z,6.60
2023-05-18T07:46:06.512Z,8.10
2023-05-18T07:56:32.416Z,3.20
2023-05-18T08:07:00.733Z,6.80
2023-05-18T08:17:26.568Z,5.60
2023-05-18T08:27:53.081Z,7.80
2023-05-18T08:38:19.392Z,6.30
2023-05-18T08:48:48.184Z,6.30
2023-05-18T08:59:15.877Z,10.50
2023-05-18T09:09:44.401Z,8.20
2023-05-18T09:20:12.318Z,11.50
2023-05-18T09:30:45.089Z,8.40
2023-05-18T09:41:15.258Z,6.10
2023-05-18T09:51:42.055Z,7.00
2023-05-18T10:02:09.176Z,5.60
2023-05-18T10:12:35.249Z,7.90
2023-05-18T10:23:06.477Z,7.90
2023-05-18T10:33:34.859Z,11.80
2023-05-18T10:44:04.042Z,8.20
2023-05-18T10:54:31.317Z,10.20
2023-05-18T11:04:57.469Z,9.30
2023-05-18T11:15:43.061Z,9.20
2023-05-18T11:26:18.670Z,7.70
2023-05-18T11:36:56.285Z,5.50
2023-05-18T11:47:34.605Z,9.30
2023-05-18T11:58:00.517Z,7.90
2023-05-18T12:08:29.692Z,6.60
2023-05-18T12:18:55.596Z,10.10
2023-05-18T12:29:23.978Z,6.10
2023-05-18T12:39:54.967Z,7.80
2023-05-18T12:50:21.100Z,5.30
2023-05-18T13:00:49.434Z,6.30
2023-05-18T13:11:16.853Z,10.60
2023-05-18T13:21:43.595Z,9.00
2023-05-18T13:32:10.745Z,10.80
2023-05-18T13:42:36.749Z,6.40
2023-05-18T13:53:02.926Z,6.30
2023-05-18T14:03:29.421Z,9.40
2023-05-18T14:13:55.754Z,7.80
2023-05-18T14:24:21.793Z,6.30
2023-05-18T14:34:47.785Z,7.60
2023-05-18T14:45:14.453Z,8.50
2023-05-18T14:55:40.349Z,7.30
2023-05-18T15:06:06.696Z,6.30
2023-05-18T15:16:32.966Z,6.30
2023-05-18T15:26:58.678Z,4.40
2023-05-18T15:37:24.749Z,4.30
2023-05-18T15:47:50.712Z,5.40
2023-05-18T15:58:17.280Z,6.70
2023-05-18T16:08:42.888Z,5.60
2023-05-18T16:19:08.907Z,5.00
2023-05-18T16:29:34.463Z,2.70
2023-05-18T16:40:00.682Z,8.60
2023-05-18T16:50:27.957Z,4.90
2023-05-18T17:00:54.038Z,7.10
2023-05-18T17:11:20.008Z,2.80
2023-05-18T17:21:46.399Z,5.30
2023-05-18T17:32:12.078Z,4.20
2023-05-18T17:42:38.250Z,4.80
2023-05-18T17:53:05.048Z,3.10
2023-05-18T18:03:30.646Z,6.10
2023-05-18T18:13:57.181Z,7.10
2023-05-18T18:24:23.796Z,6.60
2023-05-18T18:34:49.183Z,6.00
2023-05-18T18:45:15.377Z,9.50
2023-05-18T18:55:41.685Z,5.60
2023-05-18T19:06:07.393Z,7.00
2023-05-18T19:16:34.202Z,5.60
2023-05-18T19:27:00.265Z,5.10
2023-05-18T19:37:26.284Z,6.80
2023-05-18T19:47:52.494Z,4.90
2023-05-18T19:58:18.291Z,7.00
2023-05-18T20:08:44.667Z,7.00
2023-05-18T20:19:12.067Z,5.10
2023-05-18T20:29:37.990Z,6.70
2023-05-18T20:40:09.039Z,5.90
2023-05-18T20:50:35.361Z,4.80
2023-05-18T21:01:07.371Z,6.50
2023-05-18T21:11:33.978Z,5.30
2023-05-18T21:21:59.828Z,5.50
2023-05-18T21:32:26.123Z,7.70
2023-05-18T21:42:52.038Z,4.60
2023-05-18T21:53:18.359Z,5.40
2023-05-18T22:03:43.905Z,7.40
2023-05-18T22:14:09.872Z,7.60
2023-05-18T22:24:36.146Z,7.70
2023-05-18T22:35:03.392Z,7.00
2023-05-18T22:45:29.109Z,8.00
2023-05-18T22:55:56.626Z,9.70
2023-05-18T23:06:23.764Z,6.90
2023-05-18T23:16:50.416Z,7.90
2023-05-18T23:27:16.470Z,8.00
2023-05-18T23:37:43.880Z,8.00
2023-05-18T23:48:12.330Z,10.10
2023-05-18T23:58:41.590Z,9.20
